»·PEaware :: WAT169 KLAS-KSAN

WAT169 :: KLAS-KSAN

FLIGHT INFORMATION

Flight Status: Arrived
Operator:
Walker Air Transport
More flights by this operator :: More flights under this callsign
Pilot: Marty P. (27464)
Aircraft: BOEING 737-800
(B738)
More flights by this aircraft type
Origin: KLAS McCarran Intl
United States
Destination: KSAN San Diego Intl-Lindbergh
United States
More flights between these airports :: More routes between these airports
Route: BOACH8 LVELL LUCKI1
File this flight plan on PilotEdge
Remarks:
Altitude:
(Current/Filed)
30,000ft
Speed:
(Current/Filed)
480kts
Departed: 11-Aug-20 06:27 PM
Arrived: 11-Aug-20 07:12 PM
Distance/Time
Traveled:
225nm/0:45
Distance/Time
To Go:
Arrived

Flight Plot

Page will automatically refresh every two minutes.

Flight plan parsing failed; only flown route is shown


Map Options




Map Legend


Flown Route
Filed Route
Departure Airport
Arrival Airport
Navaid (VOR, NDB)
Fix

Horizontal Profiles

Position Reports

Time Latitude Longitude Heading Altitude Ground
Speed
11-Aug-20 18:03 36.081007 -115.147687 66 2191ft 0kts
11-Aug-20 18:04 36.081007 -115.147687 66 2191ft 0kts
11-Aug-20 18:05 36.081007 -115.147687 66 2191ft 0kts
11-Aug-20 18:06 36.081007 -115.147687 66 2191ft 0kts
11-Aug-20 18:07 36.081007 -115.147687 66 2191ft 0kts
11-Aug-20 18:08 36.081007 -115.147687 66 2191ft 0kts
11-Aug-20 18:09 36.081007 -115.147687 66 2191ft 0kts
11-Aug-20 18:10 36.081007 -115.147687 66 2191ft 0kts
11-Aug-20 18:11 36.081007 -115.147687 66 2191ft 0kts
11-Aug-20 18:12 36.081007 -115.147687 66 2191ft 0kts
11-Aug-20 18:13 36.081007 -115.147687 66 2191ft 0kts
11-Aug-20 18:14 36.081007 -115.147688 66 2191ft 0kts
11-Aug-20 18:15 36.081007 -115.147688 66 2191ft 0kts
11-Aug-20 18:16 36.080944 -115.148255 113 2191ft 2kts
11-Aug-20 18:17 36.080798 -115.148320 155 2191ft 7kts
11-Aug-20 18:18 36.079269 -115.147454 155 2191ft 0kts
11-Aug-20 18:19 36.079269 -115.147454 155 2191ft 0kts
11-Aug-20 18:21 36.078574 -115.146794 114 2191ft 12kts
11-Aug-20 18:22 36.078265 -115.141477 91 2191ft 16kts
11-Aug-20 18:23 36.078273 -115.134999 90 2191ft 19kts
11-Aug-20 18:24 36.078277 -115.128294 90 2191ft 18kts
11-Aug-20 18:25 36.078153 -115.122560 122 2191ft 12kts
11-Aug-20 18:26 36.077432 -115.121464 143 2191ft 0kts
11-Aug-20 18:27 36.076379 -115.130234 270 2191ft 117kts
11-Aug-20 18:28 36.076947 -115.193481 267 3849ft 215kts
11-Aug-20 18:29 36.050477 -115.264716 210 6523ft 243kts
11-Aug-20 18:30 35.985631 -115.294701 199 9561ft 257kts
11-Aug-20 18:31 35.913871 -115.308652 187 12144ft 280kts
11-Aug-20 18:32 35.825630 -115.311891 177 12949ft 358kts
11-Aug-20 18:33 35.720852 -115.299611 177 14582ft 388kts
11-Aug-20 18:34 35.611785 -115.296969 184 16575ft 400kts
11-Aug-20 18:35 35.499212 -115.301749 184 18666ft 412kts
11-Aug-20 18:36 35.383145 -115.306365 185 20892ft 424kts
11-Aug-20 18:37 35.264061 -115.311073 185 22928ft 434kts
11-Aug-20 18:37 35.163152 -115.315050 185 24440ft 442kts
11-Aug-20 18:39 35.018167 -115.320750 186 26384ft 451kts
11-Aug-20 18:40 34.900682 -115.325179 187 29826ft 413kts
11-Aug-20 18:40 34.802588 -115.337289 195 29826ft 444kts
11-Aug-20 18:41 34.682090 -115.378107 201 29840ft 455kts
11-Aug-20 18:43 34.543164 -115.435938 203 29972ft 451kts
11-Aug-20 18:43 34.444480 -115.478467 203 29981ft 452kts
11-Aug-20 18:44 34.328762 -115.535279 210 29982ft 447kts
11-Aug-20 18:45 34.219152 -115.605279 206 29984ft 449kts
11-Aug-20 18:46 34.104179 -115.663606 204 29981ft 450kts
11-Aug-20 18:47 33.987662 -115.719605 204 29874ft 450kts
11-Aug-20 18:48 33.871782 -115.775126 205 29755ft 431kts
11-Aug-20 18:49 33.767652 -115.826348 205 29767ft 405kts
11-Aug-20 18:50 33.662537 -115.875706 204 29384ft 398kts
11-Aug-20 18:51 33.560428 -115.923951 208 26844ft 390kts
11-Aug-20 18:52 33.482372 -116.008252 231 25762ft 385kts
11-Aug-20 18:53 33.419515 -116.110624 234 24033ft 378kts
11-Aug-20 18:54 33.359663 -116.212191 232 21667ft 371kts
11-Aug-20 18:55 33.278475 -116.284994 207 19318ft 368kts
11-Aug-20 18:56 33.188163 -116.337644 207 17467ft 349kts
11-Aug-20 18:57 33.101856 -116.388086 207 15442ft 342kts
11-Aug-20 18:58 33.017633 -116.437410 209 13370ft 336kts
11-Aug-20 18:59 32.946337 -116.503795 220 11668ft 323kts
11-Aug-20 19:00 32.881309 -116.569597 220 10512ft 277kts
11-Aug-20 19:01 32.826793 -116.624474 220 9668ft 265kts
11-Aug-20 19:02 32.772529 -116.683042 233 8300ft 252kts
11-Aug-20 19:03 32.737976 -116.753712 240 7082ft 240kts
11-Aug-20 19:04 32.707016 -116.820098 245 5977ft 227kts
11-Aug-20 19:05 32.685155 -116.889989 250 5041ft 218kts
11-Aug-20 19:06 32.677284 -116.961249 283 4015ft 234kts
11-Aug-20 19:07 32.695555 -117.033653 285 2831ft 210kts
11-Aug-20 19:08 32.708486 -117.086590 285 1798ft 143kts
11-Aug-20 19:09 32.719521 -117.131821 286 921ft 141kts
11-Aug-20 19:10 32.730530 -117.177406 287 119ft 144kts
11-Aug-20 19:11 32.734284 -117.194823 252 27ft 11kts
11-Aug-20 19:12 32.734155 -117.196673 257 27ft 12kts
11-Aug-20 19:13 32.732759 -117.197027 138 27ft 0kts
11-Aug-20 19:14 32.732759 -117.197027 138 27ft 0kts

Navigation Log

Ident Type
Flight plan parsing failed, navigation log unavailable